sensor_id;sensor_type;location;lat;lon;timestamp;pressure;altitude;pressure_sealevel;temperature;humidity
75221;BME280;63802;53.232;6.570;2023-07-13T00:02:22;101297.72;;;15.85;100.00
75221;BME280;63802;53.232;6.570;2023-07-13T00:04:48;101284.31;;;15.80;100.00
75221;BME280;63802;53.232;6.570;2023-07-13T00:07:14;101290.19;;;15.79;100.00
75221;BME280;63802;53.232;6.570;2023-07-13T00:09:40;101290.22;;;15.82;100.00
75221;BME280;63802;53.232;6.570;2023-07-13T00:12:23;101296.91;;;15.81;100.00
75221;BME280;63802;53.232;6.570;2023-07-13T00:14:48;101292.19;;;15.82;100.00
75221;BME280;63802;53.232;6.570;2023-07-13T00:17:15;101305.56;;;15.87;100.00
75221;BME280;63802;53.232;6.570;2023-07-13T00:19:44;101296.91;;;15.81;100.00
75221;BME280;63802;53.232;6.570;2023-07-13T00:22:09;101294.16;;;15.81;100.00
75221;BME280;63802;53.232;6.570;2023-07-13T00:24:35;101303.22;;;15.85;100.00
75221;BME280;63802;53.232;6.570;2023-07-13T00:27:01;101302.44;;;15.85;100.00
75221;BME280;63802;53.232;6.570;2023-07-13T00:29:27;101301.66;;;15.88;100.00
75221;BME280;63802;53.232;6.570;2023-07-13T00:31:52;101304.78;;;15.86;100.00
75221;BME280;63802;53.232;6.570;2023-07-13T00:34:18;101304.78;;;15.86;100.00
75221;BME280;63802;53.232;6.570;2023-07-13T00:36:44;101301.63;;;15.84;100.00
75221;BME280;63802;53.232;6.570;2023-07-13T00:39:09;101305.56;;;15.83;100.00
75221;BME280;63802;53.232;6.570;2023-07-13T00:41:35;101309.50;;;15.82;100.00
75221;BME280;63802;53.232;6.570;2023-07-13T00:44:02;101284.69;;;15.75;100.00
75221;BME280;63802;53.232;6.570;2023-07-13T00:46:33;101303.22;;;15.85;100.00
75221;BME280;63802;53.232;6.570;2023-07-13T00:49:05;101307.13;;;15.84;100.00
75221;BME280;63802;53.232;6.570;2023-07-13T00:51:58;101305.53;;;15.76;100.00
75221;BME280;63802;53.232;6.570;2023-07-13T00:54:32;101300.78;;;15.70;100.00
75221;BME280;63802;53.232;6.570;2023-07-13T00:57:01;101306.69;;;15.72;100.00
75221;BME280;63802;53.232;6.570;2023-07-13T00:59:29;101312.56;;;15.67;100.00
75221;BME280;63802;53.232;6.570;2023-07-13T01:01:55;101312.56;;;15.70;100.00
75221;BME280;63802;53.232;6.570;2023-07-13T01:04:25;101310.59;;;15.64;100.00
75221;BME280;63802;53.232;6.570;2023-07-13T01:06:51;101317.28;;;15.66;100.00
75221;BME280;63802;53.232;6.570;2023-07-13T01:09:17;101314.13;;;15.64;100.00
75221;BME280;63802;53.232;6.570;2023-07-13T01:11:44;101322.78;;;15.66;100.00
75221;BME280;63802;53.232;6.570;2023-07-13T01:14:11;101311.75;;;15.63;100.00
75221;BME280;63802;53.232;6.570;2023-07-13T01:16:39;101322.75;;;15.63;100.00
75221;BME280;63802;53.232;6.570;2023-07-13T01:19:54;101322.75;;;15.59;100.00
75221;BME280;63802;53.232;6.570;2023-07-13T01:22:10;101312.47;;;15.49;100.00
75221;BME280;63802;53.232;6.570;2023-07-13T01:24:38;101323.88;;;15.51;100.00
75221;BME280;63802;53.232;6.570;2023-07-13T01:27:06;101328.16;;;15.49;100.00
75221;BME280;63802;53.232;6.570;2023-07-13T01:29:33;101320.31;;;15.47;100.00
75221;BME280;63802;53.232;6.570;2023-07-13T01:31:59;101326.63;;;15.51;100.00
75221;BME280;63802;53.232;6.570;2023-07-13T01:34:26;101326.63;;;15.51;100.00
75221;BME280;63802;53.232;6.570;2023-07-13T01:36:52;101315.59;;;15.51;100.00
75221;BME280;63802;53.232;6.570;2023-07-13T01:39:22;101319.53;;;15.50;100.00
75221;BME280;63802;53.232;6.570;2023-07-13T01:41:48;101321.13;;;15.51;100.00
75221;BME280;63802;53.232;6.570;2023-07-13T01:44:14;101328.22;;;15.56;100.00
75221;BME280;63802;53.232;6.570;2023-07-13T01:46:40;101331.75;;;15.56;100.00
75221;BME280;63802;53.232;6.570;2023-07-13T01:49:05;101334.50;;;15.60;100.00
75221;BME280;63802;53.232;6.570;2023-07-13T01:51:31;101337.69;;;15.62;100.00
75221;BME280;63802;53.232;6.570;2023-07-13T01:53:56;101326.69;;;15.62;100.00
75221;BME280;63802;53.232;6.570;2023-07-13T01:56:22;101328.66;;;15.61;100.00
75221;BME280;63802;53.232;6.570;2023-07-13T01:58:47;101322.34;;;15.61;100.00
75221;BME280;63802;53.232;6.570;2023-07-13T02:01:13;101323.50;;;15.56;100.00
75221;BME280;63802;53.232;6.570;2023-07-13T02:03:39;101321.91;;;15.52;100.00
75221;BME280;63802;53.232;6.570;2023-07-13T02:06:04;101337.66;;;15.58;100.00
75221;BME280;63802;53.232;6.570;2023-07-13T02:08:32;101333.34;;;15.57;100.00
75221;BME280;63802;53.232;6.570;2023-07-13T02:10:58;101338.41;;;15.55;100.00
75221;BME280;63802;53.232;6.570;2023-07-13T02:13:23;101335.25;;;15.53;100.00
75221;BME280;63802;53.232;6.570;2023-07-13T02:15:52;101336.03;;;15.50;100.00
75221;BME280;63802;53.232;6.570;2023-07-13T02:18:18;101334.47;;;15.49;100.00
75221;BME280;63802;53.232;6.570;2023-07-13T02:20:43;101315.44;;;15.33;100.00
75221;BME280;63802;53.232;6.570;2023-07-13T02:23:10;101334.38;;;15.42;100.00
75221;BME280;63802;53.232;6.570;2023-07-13T02:25:35;101324.91;;;15.36;100.00
75221;BME280;63802;53.232;6.570;2023-07-13T02:28:01;101331.22;;;15.40;100.00
75221;BME280;63802;53.232;6.570;2023-07-13T02:30:27;101309.91;;;15.23;100.00
75221;BME280;63802;53.232;6.570;2023-07-13T02:32:55;101322.50;;;15.27;100.00
75221;BME280;63802;53.232;6.570;2023-07-13T02:35:21;101335.84;;;15.25;100.00
75221;BME280;63802;53.232;6.570;2023-07-13T02:37:46;101328.69;;;15.14;100.00
75221;BME280;63802;53.232;6.570;2023-07-13T02:40:12;101313.63;;;15.01;100.00
75221;BME280;63802;53.232;6.570;2023-07-13T02:42:37;101334.94;;;15.11;100.00
75221;BME280;63802;53.232;6.570;2023-07-13T02:45:03;101340.03;;;15.09;100.00
75221;BME280;63802;53.232;6.570;2023-07-13T02:47:29;101331.78;;;15.09;100.00
75221;BME280;63802;53.232;6.570;2023-07-13T02:49:54;101325.44;;;15.05;100.00
75221;BME280;63802;53.232;6.570;2023-07-13T02:52:20;101335.69;;;15.08;100.00
75221;BME280;63802;53.232;6.570;2023-07-13T02:54:46;101327.44;;;15.08;100.00
75221;BME280;63802;53.232;6.570;2023-07-13T02:57:11;101333.34;;;15.10;100.00
75221;BME280;63802;53.232;6.570;2023-07-13T02:59:37;101338.09;;;15.13;100.00
75221;BME280;63802;53.232;6.570;2023-07-13T03:02:03;101341.25;;;15.15;100.00
75221;BME280;63802;53.232;6.570;2023-07-13T03:04:29;101331.00;;;15.12;100.00
75221;BME280;63802;53.232;6.570;2023-07-13T03:06:54;101325.50;;;15.08;100.00
75221;BME280;63802;53.232;6.570;2023-07-13T03:09:23;101338.84;;;15.10;100.00
75221;BME280;63802;53.232;6.570;2023-07-13T03:11:52;101332.56;;;15.09;100.00
75221;BME280;63802;53.232;6.570;2023-07-13T03:14:18;101320.34;;;15.03;100.00
75221;BME280;63802;53.232;6.570;2023-07-13T03:16:43;101333.28;;;15.03;100.00
75221;BME280;63802;53.232;6.570;2023-07-13T03:19:08;101345.13;;;15.07;100.00
75221;BME280;63802;53.232;6.570;2023-07-13T03:21:34;101343.94;;;15.08;100.00
75221;BME280;63802;53.232;6.570;2023-07-13T03:24:00;101348.28;;;15.09;100.00
75221;BME280;63802;53.232;6.570;2023-07-13T03:26:25;101344.66;;;15.01;100.00
75221;BME280;63802;53.232;6.570;2023-07-13T03:28:51;101358.47;;;15.08;100.00
75221;BME280;63802;53.232;6.570;2023-07-13T03:31:19;101352.19;;;15.08;100.00
75221;BME280;63802;53.232;6.570;2023-07-13T03:33:45;101353.38;;;15.07;100.00
75221;BME280;63802;53.232;6.570;2023-07-13T03:36:16;101362.38;;;15.07;100.00
75221;BME280;63802;53.232;6.570;2023-07-13T03:38:49;101361.63;;;15.10;100.00
75221;BME280;63802;53.232;6.570;2023-07-13T03:41:16;101358.50;;;15.12;100.00
75221;BME280;63802;53.232;6.570;2023-07-13T03:43:42;101367.63;;;15.23;100.00
75221;BME280;63802;53.232;6.570;2023-07-13T03:46:08;101372.75;;;15.24;100.00
75221;BME280;63802;53.232;6.570;2023-07-13T03:48:34;101367.69;;;15.30;100.00
75221;BME280;63802;53.232;6.570;2023-07-13T03:50:59;101364.94;;;15.30;100.00
75221;BME280;63802;53.232;6.570;2023-07-13T03:53:26;101369.69;;;15.33;100.00
75221;BME280;63802;53.232;6.570;2023-07-13T03:55:51;101369.69;;;15.33;100.00
75221;BME280;63802;53.232;6.570;2023-07-13T03:58:35;101373.59;;;15.32;100.00
75221;BME280;63802;53.232;6.570;2023-07-13T04:01:02;101368.91;;;15.32;100.00
75221;BME280;63802;53.232;6.570;2023-07-13T04:03:28;101372.00;;;15.31;100.00
75221;BME280;63802;53.232;6.570;2023-07-13T04:05:57;101376.34;;;15.32;100.00
75221;BME280;63802;53.232;6.570;2023-07-13T04:08:32;101370.06;;;15.31;100.00
75221;BME280;63802;53.232;6.570;2023-07-13T04:10:59;101377.50;;;15.31;100.00
75221;BME280;63802;53.232;6.570;2023-07-13T04:13:25;101383.00;;;15.31;100.00
75221;BME280;63802;53.232;6.570;2023-07-13T04:15:52;101374.69;;;15.24;100.00
75221;BME280;63802;53.232;6.570;2023-07-13T04:18:18;101384.56;;;15.28;100.00
75221;BME280;63802;53.232;6.570;2023-07-13T04:20:47;101383.41;;;15.29;100.00
75221;BME280;63802;53.232;6.570;2023-07-13T04:23:14;101388.50;;;15.31;100.00
75221;BME280;63802;53.232;6.570;2023-07-13T04:25:43;101395.56;;;15.28;100.00
75221;BME280;63802;53.232;6.570;2023-07-13T04:28:09;101392.84;;;15.32;100.00
75221;BME280;63802;53.232;6.570;2023-07-13T04:30:35;101393.66;;;15.32;100.00
75221;BME280;63802;53.232;6.570;2023-07-13T04:33:00;101398.78;;;15.37;100.00
75221;BME280;63802;53.232;6.570;2023-07-13T04:35:26;101404.28;;;15.37;100.00
75221;BME280;63802;53.232;6.570;2023-07-13T04:37:52;101396.47;;;15.43;100.00
75221;BME280;63802;53.232;6.570;2023-07-13T04:40:19;101407.16;;;15.48;100.00
75221;BME280;63802;53.232;6.570;2023-07-13T04:42:45;101409.53;;;15.53;100.00
75221;BME280;63802;53.232;6.570;2023-07-13T04:45:12;101408.44;;;15.61;100.00
75221;BME280;63802;53.232;6.570;2023-07-13T04:47:38;101410.84;;;15.66;100.00
75221;BME280;63802;53.232;6.570;2023-07-13T04:50:04;101402.97;;;15.68;100.00
75221;BME280;63802;53.232;6.570;2023-07-13T04:52:29;101401.44;;;15.74;100.00
75221;BME280;63802;53.232;6.570;2023-07-13T04:54:55;101411.75;;;15.88;100.00
75221;BME280;63802;53.232;6.570;2023-07-13T04:57:20;101418.13;;;15.95;100.00
75221;BME280;63802;53.232;6.570;2023-07-13T04:59:46;101425.63;;;16.05;100.00
75221;BME280;63802;53.232;6.570;2023-07-13T05:02:12;101428.41;;;16.13;100.00
75221;BME280;63802;53.232;6.570;2023-07-13T05:04:37;101419.78;;;16.18;100.00
75221;BME280;63802;53.232;6.570;2023-07-13T05:07:05;101420.25;;;16.27;100.00
75221;BME280;63802;53.232;6.570;2023-07-13T05:09:31;101412.00;;;16.37;100.00
75221;BME280;63802;53.232;6.570;2023-07-13T05:11:57;101417.59;;;16.48;100.00
75221;BME280;63802;53.232;6.570;2023-07-13T05:14:22;101413.69;;;16.56;100.00
75221;BME280;63802;53.232;6.570;2023-07-13T05:16:47;101416.06;;;16.61;100.00
75221;BME280;63802;53.232;6.570;2023-07-13T05:19:13;101420.78;;;16.60;100.00
75221;BME280;63802;53.232;6.570;2023-07-13T05:21:38;101407.81;;;16.68;100.00
75221;BME280;63802;53.232;6.570;2023-07-13T05:24:04;101415.34;;;16.82;100.00
75221;BME280;63802;53.232;6.570;2023-07-13T05:26:30;101422.84;;;16.95;100.00
75221;BME280;63802;53.232;6.570;2023-07-13T05:28:55;101419.31;;;16.98;100.00
75221;BME280;63802;53.232;6.570;2023-07-13T05:31:21;101406.31;;;17.02;100.00
75221;BME280;63802;53.232;6.570;2023-07-13T05:33:47;101421.72;;;17.17;100.00
75221;BME280;63802;53.232;6.570;2023-07-13T05:36:12;101432.75;;;17.38;100.00
75221;BME280;63802;53.232;6.570;2023-07-13T05:38:37;101431.97;;;17.49;100.00
75221;BME280;63802;53.232;6.570;2023-07-13T05:41:03;101431.97;;;17.34;100.00
75221;BME280;63802;53.232;6.570;2023-07-13T05:43:28;101429.59;;;17.47;100.00
75221;BME280;63802;53.232;6.570;2023-07-13T05:45:55;101419.38;;;17.51;100.00
75221;BME280;63802;53.232;6.570;2023-07-13T05:48:21;101435.91;;;17.48;100.00
75221;BME280;63802;53.232;6.570;2023-07-13T05:50:47;101433.59;;;17.60;100.00
75221;BME280;63802;53.232;6.570;2023-07-13T05:53:12;101439.91;;;17.68;100.00
75221;BME280;63802;53.232;6.570;2023-07-13T05:55:42;101445.78;;;17.84;100.00
75221;BME280;63802;53.232;6.570;2023-07-13T05:58:08;101442.22;;;17.90;100.00
75221;BME280;63802;53.232;6.570;2023-07-13T06:00:34;101440.63;;;18.00;100.00
75221;BME280;63802;53.232;6.570;2023-07-13T06:02:59;101449.69;;;18.18;100.00
75221;BME280;63802;53.232;6.570;2023-07-13T06:05:25;101433.44;;;18.24;100.00
75221;BME280;63802;53.232;6.570;2023-07-13T06:07:50;101453.13;;;18.43;100.00
75221;BME280;63802;53.232;6.570;2023-07-13T06:10:16;101433.38;;;18.55;100.00
75221;BME280;63802;53.232;6.570;2023-07-13T06:12:41;101444.34;;;18.73;100.00
75221;BME280;63802;53.232;6.570;2023-07-13T06:15:07;101432.38;;;18.94;100.00
75221;BME280;63802;53.232;6.570;2023-07-13T06:17:33;101436.97;;;19.18;100.00
75221;BME280;63802;53.232;6.570;2023-07-13T06:19:58;101434.53;;;19.27;100.00
75221;BME280;63802;53.232;6.570;2023-07-13T06:22:24;101448.19;;;19.55;100.00
75221;BME280;63802;53.232;6.570;2023-07-13T06:24:49;101441.13;;;19.44;100.00
75221;BME280;63802;53.232;6.570;2023-07-13T06:27:15;101436.81;;;19.39;100.00
75221;BME280;63802;53.232;6.570;2023-07-13T06:29:41;101444.09;;;19.19;100.00
75221;BME280;63802;53.232;6.570;2023-07-13T06:32:10;101442.38;;;19.39;100.00
75221;BME280;63802;53.232;6.570;2023-07-13T06:34:35;101452.09;;;19.61;100.00
75221;BME280;63802;53.232;6.570;2023-07-13T06:37:01;101450.84;;;19.66;100.00
75221;BME280;63802;53.232;6.570;2023-07-13T06:39:26;101444.66;;;19.92;100.00
75221;BME280;63802;53.232;6.570;2023-07-13T06:41:52;101448.72;;;20.25;100.00
75221;BME280;63802;53.232;6.570;2023-07-13T06:44:17;101446.97;;;20.00;100.00
75221;BME280;63802;53.232;6.570;2023-07-13T06:46:43;101455.59;;;20.10;100.00
75221;BME280;63802;53.232;6.570;2023-07-13T06:49:09;101446.94;;;20.41;100.00
75221;BME280;63802;53.232;6.570;2023-07-13T06:51:35;101448.56;;;20.39;100.00
75221;BME280;63802;53.232;6.570;2023-07-13T06:54:00;101460.13;;;20.64;100.00
75221;BME280;63802;53.232;6.570;2023-07-13T06:56:26;101456.56;;;20.94;100.00
75221;BME280;63802;53.232;6.570;2023-07-13T06:58:51;101462.44;;;20.69;100.00
75221;BME280;63802;53.232;6.570;2023-07-13T07:01:16;101458.06;;;20.38;100.00
75221;BME280;63802;53.232;6.570;2023-07-13T07:03:42;101468.34;;;20.41;100.00
75221;BME280;63802;53.232;6.570;2023-07-13T07:06:15;101467.78;;;20.83;100.00
75221;BME280;63802;53.232;6.570;2023-07-13T07:08:41;101465.50;;;21.08;100.00
75221;BME280;63802;53.232;6.570;2023-07-13T07:11:10;101464.38;;;21.56;100.00
75221;BME280;63802;53.232;6.570;2023-07-13T07:13:35;101470.13;;;21.91;100.00
75221;BME280;63802;53.232;6.570;2023-07-13T07:16:01;101460.13;;;22.17;100.00
75221;BME280;63802;53.232;6.570;2023-07-13T07:18:26;101461.16;;;21.57;100.00
75221;BME280;63802;53.232;6.570;2023-07-13T07:20:52;101460.41;;;21.57;100.00
75221;BME280;63802;53.232;6.570;2023-07-13T07:23:18;101459.94;;;20.78;100.00
75221;BME280;63802;53.232;6.570;2023-07-13T07:25:44;101455.88;;;20.19;100.00
75221;BME280;63802;53.232;6.570;2023-07-13T07:28:10;101468.72;;;20.02;100.00
75221;BME280;63802;53.232;6.570;2023-07-13T07:30:36;101471.56;;;19.95;100.00
75221;BME280;63802;53.232;6.570;2023-07-13T07:33:03;101472.69;;;20.42;100.00
75221;BME280;63802;53.232;6.570;2023-07-13T07:35:28;101479.31;;;21.12;100.00
75221;BME280;63802;53.232;6.570;2023-07-13T07:37:54;101488.56;;;21.55;100.00
75221;BME280;63802;53.232;6.570;2023-07-13T07:40:19;101476.63;;;21.81;100.00
75221;BME280;63802;53.232;6.570;2023-07-13T07:42:45;101475.88;;;21.81;100.00
75221;BME280;63802;53.232;6.570;2023-07-13T07:45:11;101480.63;;;21.80;100.00
75221;BME280;63802;53.232;6.570;2023-07-13T07:47:37;101485.38;;;21.80;100.00
75221;BME280;63802;53.232;6.570;2023-07-13T07:50:03;101487.97;;;21.67;100.00
75221;BME280;63802;53.232;6.570;2023-07-13T07:52:29;101479.34;;;21.62;100.00
75221;BME280;63802;53.232;6.570;2023-07-13T07:54:55;101499.53;;;21.66;100.00
75221;BME280;63802;53.232;6.570;2023-07-13T07:57:21;101479.09;;;21.26;100.00
75221;BME280;63802;53.232;6.570;2023-07-13T07:59:46;101485.09;;;20.64;100.00
75221;BME280;63802;53.232;6.570;2023-07-13T08:02:13;101479.16;;;20.28;100.00
75221;BME280;63802;53.232;6.570;2023-07-13T08:04:39;101489.66;;;20.06;100.00
75221;BME280;63802;53.232;6.570;2023-07-13T08:07:05;101492.41;;;20.06;100.00
75221;BME280;63802;53.232;6.570;2023-07-13T08:09:30;101488.81;;;19.72;100.00
75221;BME280;63802;53.232;6.570;2023-07-13T08:11:56;101500.88;;;19.45;100.00
75221;BME280;63802;53.232;6.570;2023-07-13T08:14:21;101495.69;;;19.47;100.00
75221;BME280;63802;53.232;6.570;2023-07-13T08:16:47;101490.47;;;19.59;100.00
75221;BME280;63802;53.232;6.570;2023-07-13T08:19:13;101487.97;;;19.75;100.00
75221;BME280;63802;53.232;6.570;2023-07-13T08:21:38;101495.25;;;19.99;100.00
75221;BME280;63802;53.232;6.570;2023-07-13T08:24:04;101500.06;;;20.36;100.00
75221;BME280;63802;53.232;6.570;2023-07-13T08:26:29;101499.81;;;20.24;100.00
75221;BME280;63802;53.232;6.570;2023-07-13T08:28:55;101504.97;;;20.18;100.00
75221;BME280;63802;53.232;6.570;2023-07-13T08:31:20;101496.97;;;20.31;100.00
75221;BME280;63802;53.232;6.570;2023-07-13T08:33:46;101497.25;;;20.40;100.00
75221;BME280;63802;53.232;6.570;2023-07-13T08:36:11;101503.13;;;20.08;100.00
75221;BME280;63802;53.232;6.570;2023-07-13T08:38:38;101509.50;;;20.01;100.00
75221;BME280;63802;53.232;6.570;2023-07-13T08:41:14;101509.59;;;19.91;100.00
75221;BME280;63802;53.232;6.570;2023-07-13T08:43:41;101510.19;;;19.68;100.00
75221;BME280;63802;53.232;6.570;2023-07-13T08:46:18;101511.84;;;19.59;100.00
75221;BME280;63802;53.232;6.570;2023-07-13T08:48:57;101506.59;;;19.71;100.00
75221;BME280;63802;53.232;6.570;2023-07-13T08:51:45;101501.03;;;20.16;100.00
75221;BME280;63802;53.232;6.570;2023-07-13T08:54:21;101510.03;;;20.67;100.00
75221;BME280;63802;53.232;6.570;2023-07-13T08:56:50;101494.44;;;21.61;100.00
75221;BME280;63802;53.232;6.570;2023-07-13T08:59:19;101482.97;;;22.28;100.00
75221;BME280;63802;53.232;6.570;2023-07-13T09:10:30;101491.34;;;21.55;100.00
75221;BME280;63802;53.232;6.570;2023-07-13T09:13:19;101503.03;;;21.16;100.00
75221;BME280;63802;53.232;6.570;2023-07-13T09:15:48;101501.31;;;20.96;100.00
75221;BME280;63802;53.232;6.570;2023-07-13T09:18:28;101502.25;;;20.52;100.00
75221;BME280;63802;53.232;6.570;2023-07-13T09:21:29;101512.16;;;20.53;100.00
75221;BME280;63802;53.232;6.570;2023-07-13T09:23:59;101506.44;;;20.97;100.00
75221;BME280;63802;53.232;6.570;2023-07-13T09:26:29;101500.34;;;21.40;100.00
75221;BME280;63802;53.232;6.570;2023-07-13T09:29:03;101488.06;;;21.64;100.00
75221;BME280;63802;53.232;6.570;2023-07-13T09:31:39;101496.63;;;22.39;100.00
75221;BME280;63802;53.232;6.570;2023-07-13T09:34:10;101495.47;;;22.79;100.00
75221;BME280;63802;53.232;6.570;2023-07-13T09:36:36;101498.31;;;22.76;100.00
75221;BME280;63802;53.232;6.570;2023-07-13T09:39:14;101502.22;;;22.58;100.00
75221;BME280;63802;53.232;6.570;2023-07-13T09:44:12;101504.84;;;22.46;100.00
75221;BME280;63802;53.232;6.570;2023-07-13T09:46:52;101497.97;;;22.11;100.00
75221;BME280;63802;53.232;6.570;2023-07-13T09:49:26;101498.44;;;21.83;100.00
75221;BME280;63802;53.232;6.570;2023-07-13T09:52:04;101504.09;;;21.53;100.00
75221;BME280;63802;53.232;6.570;2023-07-13T09:54:34;101507.44;;;21.41;100.00
75221;BME280;63802;53.232;6.570;2023-07-13T09:57:01;101504.78;;;21.33;100.00
75221;BME280;63802;53.232;6.570;2023-07-13T09:59:36;101524.75;;;21.25;100.00
75221;BME280;63802;53.232;6.570;2023-07-13T10:02:31;101520.31;;;20.67;100.00
75221;BME280;63802;53.232;6.570;2023-07-13T10:05:04;101524.28;;;20.66;100.00
75221;BME280;63802;53.232;6.570;2023-07-13T10:07:32;101529.69;;;20.46;100.00
75221;BME280;63802;53.232;6.570;2023-07-13T10:10:01;101538.19;;;20.29;100.00
75221;BME280;63802;53.232;6.570;2023-07-13T10:12:29;101539.69;;;20.37;100.00
75221;BME280;63802;53.232;6.570;2023-07-13T10:14:58;101538.84;;;21.11;100.00
75221;BME280;63802;53.232;6.570;2023-07-13T10:17:32;101527.97;;;22.00;100.00
75221;BME280;63802;53.232;6.570;2023-07-13T10:20:05;101538.47;;;21.89;89.11
75221;BME280;63802;53.232;6.570;2023-07-13T10:25:19;101542.25;;;21.49;92.62
75221;BME280;63802;53.232;6.570;2023-07-13T10:27:47;101533.78;;;21.82;95.79
75221;BME280;63802;53.232;6.570;2023-07-13T10:30:20;101538.47;;;22.55;92.46
75221;BME280;63802;53.232;6.570;2023-07-13T10:32:49;101547.75;;;23.27;82.29
75221;BME280;63802;53.232;6.570;2023-07-13T10:35:16;101547.63;;;23.66;76.46
75221;BME280;63802;53.232;6.570;2023-07-13T10:40:18;101543.13;;;23.56;72.05
75221;BME280;63802;53.232;6.570;2023-07-13T10:42:48;101538.78;;;23.00;72.66
75221;BME280;63802;53.232;6.570;2023-07-13T10:45:17;101537.25;;;22.13;73.85
75221;BME280;63802;53.232;6.570;2023-07-13T10:47:44;101567.47;;;22.34;82.25
75221;BME280;63802;53.232;6.570;2023-07-13T10:50:18;101544.94;;;22.29;79.87
75221;BME280;63802;53.232;6.570;2023-07-13T10:52:52;101553.31;;;23.27;76.07
75221;BME280;63802;53.232;6.570;2023-07-13T10:55:32;101563.38;;;23.41;70.20
75221;BME280;63802;53.232;6.570;2023-07-13T10:58:11;101561.41;;;24.67;71.36
75221;BME280;63802;53.232;6.570;2023-07-13T11:00:44;101552.19;;;24.82;62.13
75221;BME280;63802;53.232;6.570;2023-07-13T11:03:14;101549.22;;;24.89;61.33
75221;BME280;63802;53.232;6.570;2023-07-13T11:05:41;101555.78;;;24.54;60.38
75221;BME280;63802;53.232;6.570;2023-07-13T11:08:33;101557.25;;;25.54;62.55
75221;BME280;63802;53.232;6.570;2023-07-13T11:10:59;101554.78;;;25.56;57.51
75221;BME280;63802;53.232;6.570;2023-07-13T11:21:31;101568.03;;;26.02;59.04
75221;BME280;63802;53.232;6.570;2023-07-13T11:26:51;101575.03;;;24.20;62.43
75221;BME280;63802;53.232;6.570;2023-07-13T11:31:43;101564.94;;;24.54;68.61
75221;BME280;63802;53.232;6.570;2023-07-13T11:34:18;101558.91;;;25.39;63.13
75221;BME280;63802;53.232;6.570;2023-07-13T11:36:47;101564.34;;;26.18;59.73
75221;BME280;63802;53.232;6.570;2023-07-13T11:39:32;101573.78;;;26.45;55.18
75221;BME280;63802;53.232;6.570;2023-07-13T11:42:02;101571.25;;;26.26;56.95
75221;BME280;63802;53.232;6.570;2023-07-13T11:44:30;101582.50;;;26.69;56.99
75221;BME280;63802;53.232;6.570;2023-07-13T11:46:59;101568.22;;;25.48;56.33
75221;BME280;63802;53.232;6.570;2023-07-13T11:49:31;101573.34;;;24.96;57.85
75221;BME280;63802;53.232;6.570;2023-07-13T11:51:57;101576.31;;;25.30;59.00
75221;BME280;63802;53.232;6.570;2023-07-13T11:57:07;101572.13;;;25.76;53.90
75221;BME280;63802;53.232;6.570;2023-07-13T11:59:42;101584.56;;;25.08;57.67
75221;BME280;63802;53.232;6.570;2023-07-13T12:02:25;101584.84;;;24.24;61.66
75221;BME280;63802;53.232;6.570;2023-07-13T12:04:52;101571.13;;;24.75;65.66
75221;BME280;63802;53.232;6.570;2023-07-13T12:07:19;101589.34;;;25.08;62.33
75221;BME280;63802;53.232;6.570;2023-07-13T12:09:45;101567.16;;;25.29;60.44
75221;BME280;63802;53.232;6.570;2023-07-13T12:12:14;101582.84;;;24.86;59.88
75221;BME280;63802;53.232;6.570;2023-07-13T12:14:42;101577.13;;;24.89;57.54
75221;BME280;63802;53.232;6.570;2023-07-13T12:17:27;101588.88;;;24.97;59.80
75221;BME280;63802;53.232;6.570;2023-07-13T12:19:53;101593.06;;;25.17;57.99
75221;BME280;63802;53.232;6.570;2023-07-13T12:22:20;101587.78;;;25.73;58.90
75221;BME280;63802;53.232;6.570;2023-07-13T12:24:46;101603.31;;;26.12;58.94
75221;BME280;63802;53.232;6.570;2023-07-13T12:27:27;101608.41;;;26.39;52.60
75221;BME280;63802;53.232;6.570;2023-07-13T12:30:00;101610.00;;;26.61;52.97
75221;BME280;63802;53.232;6.570;2023-07-13T12:32:27;101601.31;;;26.81;52.35
75221;BME280;63802;53.232;6.570;2023-07-13T12:34:56;101610.16;;;26.45;53.82
75221;BME280;63802;53.232;6.570;2023-07-13T12:37:23;101604.28;;;27.30;52.67
75221;BME280;63802;53.232;6.570;2023-07-13T12:39:49;101625.50;;;26.53;50.51
75221;BME280;63802;53.232;6.570;2023-07-13T12:42:30;101632.84;;;25.50;56.97
75221;BME280;63802;53.232;6.570;2023-07-13T12:45:20;101623.78;;;25.71;56.86
75221;BME280;63802;53.232;6.570;2023-07-13T12:47:50;101621.91;;;25.81;57.25
75221;BME280;63802;53.232;6.570;2023-07-13T12:50:18;101644.38;;;26.03;53.59
75221;BME280;63802;53.232;6.570;2023-07-13T12:52:50;101638.13;;;25.32;55.84
75221;BME280;63802;53.232;6.570;2023-07-13T12:55:18;101620.41;;;25.39;59.39
75221;BME280;63802;53.232;6.570;2023-07-13T12:57:51;101634.97;;;25.59;56.58
75221;BME280;63802;53.232;6.570;2023-07-13T13:02:51;101632.09;;;26.47;59.73
75221;BME280;63802;53.232;6.570;2023-07-13T13:05:17;101632.31;;;26.52;61.13
75221;BME280;63802;53.232;6.570;2023-07-13T13:07:43;101640.78;;;26.61;58.98
75221;BME280;63802;53.232;6.570;2023-07-13T13:10:12;101639.91;;;26.99;55.31
75221;BME280;63802;53.232;6.570;2023-07-13T13:12:39;101642.88;;;27.26;53.02
75221;BME280;63802;53.232;6.570;2023-07-13T13:15:08;101638.72;;;27.31;52.33
75221;BME280;63802;53.232;6.570;2023-07-13T13:17:34;101643.22;;;27.28;55.76
75221;BME280;63802;53.232;6.570;2023-07-13T13:20:00;101644.75;;;27.81;53.84
75221;BME280;63802;53.232;6.570;2023-07-13T13:22:25;101647.66;;;27.38;53.94
75221;BME280;63802;53.232;6.570;2023-07-13T13:24:51;101650.06;;;27.05;52.75